Time;durP1;ratioP1;P1;durP2;ratioP2;P2;SDS_P1;SDS_P2;PMS_P1;PMS_P2;Temp;Humidity;BMP_temperature;BMP_pressure;BME280_temperature;BME280_humidity;BME280_pressure;Samples;Min_cycle;Max_cycle;Signal;HPM_P1;HPM_P2
2023/07/08 00:00:13;;;;;;;;;7.20;7.20;;;;;-143.47;100.00;63865.75;2085029;28;8702;-69
2023/07/08 00:01:15;;;;;;;;;7.80;6.80;;;;;-143.47;100.00;63865.75;2086827;28;8925;-68
2023/07/08 00:02:15;;;;;;;;;9.60;8.60;;;;;-143.47;100.00;63865.75;2092725;28;8846;-70
2023/07/08 00:03:17;;;;;;;;;7.00;7.00;;;;;-143.47;100.00;63865.75;2085030;28;8753;-68
2023/07/08 00:04:17;;;;;;;;;8.80;8.40;;;;;-143.47;100.00;63865.75;2084657;28;8874;-70
2023/07/08 00:05:20;;;;;;;;;8.00;7.50;;;;;-143.47;100.00;63865.75;2084830;28;8776;-70
2023/07/08 00:06:25;;;;;;;;;7.60;7.60;;;;;-143.47;100.00;63865.75;2076254;28;8781;-70
2023/07/08 00:07:26;;;;;;;;;8.40;8.20;;;;;-143.47;100.00;63865.75;2077527;28;8722;-70
2023/07/08 00:08:26;;;;;;;;;7.00;7.00;;;;;-143.47;100.00;63865.75;2085189;28;8761;-70
2023/07/08 00:09:26;;;;;;;;;11.25;8.75;;;;;-143.47;100.00;63865.75;2091277;28;8839;-69
2023/07/08 00:10:28;;;;;;;;;8.50;8.50;;;;;-143.47;100.00;63865.75;2111172;28;8786;-71
2023/07/08 00:11:29;;;;;;;;;7.00;7.00;;;;;-143.47;100.00;63865.75;2119321;28;8661;-70
2023/07/08 00:12:29;;;;;;;;;12.50;9.75;;;;;-143.47;100.00;63865.75;2119487;28;8745;-70
2023/07/08 00:13:29;;;;;;;;;9.25;7.25;;;;;-143.47;100.00;63865.75;2110226;28;10529;-67
2023/07/08 00:14:30;;;;;;;;;6.00;6.00;;;;;-143.47;100.00;63865.75;2110277;28;8825;-68
2023/07/08 00:15:32;;;;;;;;;9.00;9.00;;;;;-143.47;100.00;63865.75;2114617;28;8749;-70
2023/07/08 00:16:33;;;;;;;;;6.60;6.60;;;;;-143.47;100.00;63865.75;2119410;28;8677;-70
2023/07/08 00:17:34;;;;;;;;;8.20;8.20;;;;;-143.47;100.00;63865.75;2118951;28;8705;-70
2023/07/08 00:18:34;;;;;;;;;8.00;7.25;;;;;-143.47;100.00;63865.75;2113070;28;8773;-69
2023/07/08 00:19:34;;;;;;;;;8.25;7.25;;;;;-143.47;100.00;63865.75;2119101;28;8749;-70
2023/07/08 00:20:41;;;;;;;;;7.25;7.25;;;;;-143.47;100.00;63865.75;2119736;28;8807;-69
2023/07/08 00:21:42;;;;;;;;;9.20;8.40;;;;;-143.47;100.00;63865.75;2119552;28;8756;-69
2023/07/08 00:22:42;;;;;;;;;8.00;7.25;;;;;-143.47;100.00;63865.75;2119243;28;8820;-70
2023/07/08 00:23:47;;;;;;;;;7.75;7.75;;;;;-143.47;100.00;63865.75;2119517;28;9222;-70
2023/07/08 00:24:48;;;;;;;;;8.40;8.00;;;;;-143.47;100.00;63865.75;2119220;28;8709;-68
2023/07/08 00:25:48;;;;;;;;;7.25;7.25;;;;;-143.47;100.00;63865.75;2118989;28;8795;-70
2023/07/08 00:26:48;;;;;;;;;9.50;9.00;;;;;-143.47;100.00;63865.75;2119604;28;8768;-69
2023/07/08 00:27:49;;;;;;;;;9.75;8.50;;;;;-143.47;100.00;63865.75;2119507;28;8733;-68
2023/07/08 00:28:50;;;;;;;;;8.25;8.25;;;;;-143.47;100.00;63865.75;2114583;28;8770;-70
2023/07/08 00:29:50;;;;;;;;;7.50;6.00;;;;;-143.47;100.00;63865.75;2111094;28;8747;-69
2023/07/08 00:30:50;;;;;;;;;8.25;8.25;;;;;-143.47;100.00;63865.75;2110582;28;9349;-68
2023/07/08 00:31:51;;;;;;;;;10.00;7.50;;;;;-143.47;100.00;63865.75;2110455;28;8782;-70
2023/07/08 00:32:55;;;;;;;;;8.00;8.00;;;;;-143.47;100.00;63865.75;2110714;28;8723;-69
2023/07/08 00:33:56;;;;;;;;;9.00;8.00;;;;;-143.47;100.00;63865.75;2116284;28;8717;-70
2023/07/08 00:34:56;;;;;;;;;7.40;7.40;;;;;-143.47;100.00;63865.75;2112493;28;8856;-68
2023/07/08 00:35:57;;;;;;;;;6.50;6.50;;;;;-143.47;100.00;63865.75;2119362;28;8745;-69
2023/07/08 00:36:57;;;;;;;;;7.00;7.00;;;;;-143.47;100.00;63865.75;2118691;28;8757;-69
2023/07/08 00:38:01;;;;;;;;;9.50;9.50;;;;;-143.47;100.00;63865.75;2119414;28;8721;-69
2023/07/08 00:39:14;;;;;;;;;6.80;6.80;;;;;-143.47;100.00;63865.75;2119204;28;8848;-69
2023/07/08 00:40:17;;;;;;;;;10.40;10.40;;;;;-143.47;100.00;63865.75;2113545;28;8785;-70
2023/07/08 00:41:30;;;;;;;;;8.20;8.20;;;;;-143.47;100.00;63865.75;2110461;28;9344;-70
2023/07/08 00:42:31;;;;;;;;;10.60;7.60;;;;;-143.47;100.00;63865.75;2110021;28;9334;-69
2023/07/08 00:43:38;;;;;;;;;7.50;7.50;;;;;-143.47;100.00;63865.75;2116530;28;8752;-70
2023/07/08 00:44:39;;;;;;;;;6.40;6.40;;;;;-143.47;100.00;63865.75;2111881;28;8710;-70
2023/07/08 00:45:48;;;;;;;;;6.60;5.20;;;;;-143.47;100.00;63865.75;2119269;28;8811;-70
2023/07/08 00:46:57;;;;;;;;;10.80;10.40;;;;;-143.47;100.00;63865.75;2110084;28;8696;-68
2023/07/08 00:48:05;;;;;;;;;9.20;8.80;;;;;-143.47;100.00;63865.75;2111347;28;9259;-68
2023/07/08 00:49:43;;;;;;;;;7.80;7.80;;;;;-143.47;100.00;63865.75;2119646;28;8674;-67
2023/07/08 00:50:44;;;;;;;;;7.00;7.00;;;;;-143.47;100.00;63865.75;2109985;28;8928;-68
2023/07/08 00:51:44;;;;;;;;;8.75;8.25;;;;;-143.47;100.00;63865.75;2116160;28;9304;-70
2023/07/08 00:52:45;;;;;;;;;7.25;7.25;;;;;-143.47;100.00;63865.75;2119085;28;8802;-70
2023/07/08 00:53:46;;;;;;;;;8.20;6.60;;;;;-143.47;100.00;63865.75;2119258;28;8736;-69
2023/07/08 00:54:50;;;;;;;;;6.75;6.75;;;;;-143.47;100.00;63865.75;2118723;28;9215;-70
2023/07/08 00:55:54;;;;;;;;;7.00;6.60;;;;;-143.47;100.00;63865.75;2119315;28;8727;-69
2023/07/08 00:56:59;;;;;;;;;7.60;7.60;;;;;-143.47;100.00;63865.75;2118911;28;8819;-68
2023/07/08 00:57:59;;;;;;;;;6.20;6.20;;;;;-143.47;100.00;63865.75;2119088;28;8702;-70
2023/07/08 00:59:15;;;;;;;;;7.00;6.50;;;;;-143.47;100.00;63865.75;2119095;28;9218;-69
2023/07/08 01:00:17;;;;;;;;;6.00;6.00;;;;;-143.47;100.00;63865.75;2093163;28;8814;-70
2023/07/08 01:01:18;;;;;;;;;7.20;6.40;;;;;-143.47;100.00;63865.75;2100851;28;8685;-68
2023/07/08 01:02:23;;;;;;;;;8.00;8.00;;;;;-143.47;100.00;63865.75;2110183;28;8695;-70
2023/07/08 01:03:27;;;;;;;;;7.00;5.60;;;;;-143.47;100.00;63865.75;2103630;28;8674;-70
2023/07/08 01:04:46;;;;;;;;;9.60;8.20;;;;;-143.47;100.00;63865.75;2112314;28;8709;-69
2023/07/08 01:05:47;;;;;;;;;9.20;9.00;;;;;-143.47;100.00;63865.75;2117164;28;8726;-68
2023/07/08 01:06:57;;;;;;;;;7.80;7.80;;;;;-143.47;100.00;63865.75;2120588;28;9320;-69
2023/07/08 01:08:01;;;;;;;;;7.40;7.40;;;;;-143.47;100.00;63865.75;2111525;28;8917;-70
2023/07/08 01:09:04;;;;;;;;;9.60;9.60;;;;;-143.47;100.00;63865.75;2112698;28;8664;-69
2023/07/08 01:10:12;;;;;;;;;7.60;7.60;;;;;-143.47;100.00;63865.75;2120513;28;8689;-70
2023/07/08 01:11:13;;;;;;;;;8.60;6.40;;;;;-143.47;100.00;63865.75;2120327;28;9277;-69
2023/07/08 01:12:18;;;;;;;;;7.00;6.50;;;;;-143.47;100.00;63865.75;2120622;28;8682;-69
2023/07/08 01:13:21;;;;;;;;;8.00;8.00;;;;;-143.47;100.00;63865.75;2111683;28;8684;-68
2023/07/08 01:14:23;;;;;;;;;8.80;6.60;;;;;-143.47;100.00;63865.75;2111346;28;8824;-70
2023/07/08 01:15:29;;;;;;;;;8.00;8.00;;;;;-143.47;100.00;63865.75;2113917;28;8798;-67
2023/07/08 01:16:33;;;;;;;;;8.60;8.60;;;;;-143.47;100.00;63865.75;2119869;28;8728;-69
2023/07/08 01:17:34;;;;;;;;;8.00;8.00;;;;;-143.47;100.00;63865.75;2120720;28;8702;-70
2023/07/08 01:18:35;;;;;;;;;8.50;7.50;;;;;-143.47;100.00;63865.75;2120539;28;8736;-70
2023/07/08 01:19:38;;;;;;;;;7.40;7.40;;;;;-143.47;100.00;63865.75;2120250;28;8815;-70
2023/07/08 01:20:39;;;;;;;;;6.00;6.00;;;;;-143.47;100.00;63865.75;2120139;28;8701;-69
2023/07/08 01:21:53;;;;;;;;;7.80;7.80;;;;;-143.47;100.00;63865.75;2116350;28;8817;-69
2023/07/08 01:22:53;;;;;;;;;7.80;7.80;;;;;-143.47;100.00;63865.75;2119242;28;8705;-69
2023/07/08 01:23:54;;;;;;;;;11.75;9.00;;;;;-143.47;100.00;63865.75;2120421;28;8760;-69
2023/07/08 01:24:54;;;;;;;;;5.25;5.25;;;;;-143.47;100.00;63865.75;2115519;28;8747;-65
2023/07/08 01:25:55;;;;;;;;;7.75;7.75;;;;;-143.47;100.00;63865.75;2112213;28;8764;-66
2023/07/08 01:26:56;;;;;;;;;7.00;7.00;;;;;-143.47;100.00;63865.75;2111354;28;8759;-66
2023/07/08 01:27:57;;;;;;;;;7.00;7.00;;;;;-143.47;100.00;63865.75;2111489;28;8805;-67
2023/07/08 01:28:58;;;;;;;;;7.60;7.20;;;;;-143.47;100.00;63865.75;2111589;28;8731;-68
2023/07/08 01:30:01;;;;;;;;;9.00;9.00;;;;;-143.47;100.00;63865.75;2113524;28;8672;-69
2023/07/08 01:31:01;;;;;;;;;9.00;7.60;;;;;-143.47;100.00;63865.75;2120405;28;8650;-68
2023/07/08 01:32:02;;;;;;;;;6.75;6.75;;;;;-143.47;100.00;63865.75;2120448;28;8780;-69
2023/07/08 01:33:12;;;;;;;;;7.50;7.00;;;;;-143.47;100.00;63865.75;2111324;28;8731;-68
2023/07/08 01:34:12;;;;;;;;;5.00;5.00;;;;;-143.47;100.00;63865.75;2112778;28;11916;-69
2023/07/08 01:35:13;;;;;;;;;8.75;8.75;;;;;-143.47;100.00;63865.75;2120771;28;9199;-69
2023/07/08 01:36:14;;;;;;;;;9.50;8.25;;;;;-143.47;100.00;63865.75;2120088;28;8721;-68
2023/07/08 01:37:14;;;;;;;;;5.00;4.50;;;;;-143.47;100.00;63865.75;2120460;28;8768;-67
2023/07/08 01:38:18;;;;;;;;;6.00;6.00;;;;;-143.47;100.00;63865.75;2116868;28;8815;-67
2023/07/08 01:39:22;;;;;;;;;6.20;6.20;;;;;-143.47;100.00;63865.75;2102748;28;8851;-67
2023/07/08 01:40:35;;;;;;;;;4.60;4.60;;;;;-143.47;100.00;63865.75;2109351;28;8739;-67
2023/07/08 01:41:35;;;;;;;;;6.60;6.60;;;;;-143.47;100.00;63865.75;2119976;28;8666;-67
2023/07/08 01:42:35;;;;;;;;;7.50;7.50;;;;;-143.47;100.00;63865.75;2120732;28;8756;-68
2023/07/08 01:43:36;;;;;;;;;7.50;7.00;;;;;-143.47;100.00;63865.75;2119998;28;8776;-66
2023/07/08 01:44:36;;;;;;;;;8.75;7.75;;;;;-143.47;100.00;63865.75;2120364;28;8733;-66
2023/07/08 01:45:40;;;;;;;;;8.00;8.00;;;;;-143.47;100.00;63865.75;2120575;28;8749;-66
2023/07/08 01:46:41;;;;;;;;;7.40;6.80;;;;;-143.47;100.00;63865.75;2120156;28;8811;-67
2023/07/08 01:47:45;;;;;;;;;10.00;8.00;;;;;-143.47;100.00;63865.75;2120089;28;8753;-67
2023/07/08 01:48:51;;;;;;;;;10.60;9.60;;;;;-143.47;100.00;63865.75;2120215;28;8701;-66
2023/07/08 01:49:51;;;;;;;;;8.60;7.80;;;;;-143.47;100.00;63865.75;2119821;28;8757;-65
2023/07/08 01:50:59;;;;;;;;;9.00;8.50;;;;;-143.47;100.00;63865.75;2120228;28;8737;-67
2023/07/08 01:52:01;;;;;;;;;10.00;10.00;;;;;-143.47;100.00;63865.75;2120104;28;8665;-66
2023/07/08 01:53:06;;;;;;;;;10.00;9.80;;;;;-143.47;100.00;63865.75;2120028;28;8697;-66
2023/07/08 01:54:06;;;;;;;;;12.80;11.40;;;;;-143.47;100.00;63865.75;2111675;28;8723;-67
2023/07/08 01:55:07;;;;;;;;;12.50;11.00;;;;;-143.47;100.00;63865.75;2111884;28;9260;-67
2023/07/08 01:56:10;;;;;;;;;16.00;13.75;;;;;-143.47;100.00;63865.75;2091415;28;8944;-68
2023/07/08 01:57:10;;;;;;;;;17.20;16.00;;;;;-143.47;100.00;63865.75;2094589;28;8933;-67
2023/07/08 01:58:10;;;;;;;;;19.25;17.00;;;;;-143.47;100.00;63865.75;2119589;28;8776;-67
2023/07/08 01:59:10;;;;;;;;;18.50;15.50;;;;;-143.47;100.00;63865.75;2111627;28;8767;-68
2023/07/08 02:00:12;;;;;;;;;15.50;15.25;;;;;-143.47;100.00;63865.75;2120163;28;8769;-67
2023/07/08 02:01:12;;;;;;;;;15.60;14.00;;;;;-143.47;100.00;63865.75;2119729;28;8717;-67
2023/07/08 02:02:12;;;;;;;;;12.25;12.25;;;;;-143.47;100.00;63865.75;2120063;28;8735;-67
2023/07/08 02:03:13;;;;;;;;;9.75;9.00;;;;;-143.47;100.00;63865.75;2113298;28;8757;-66
2023/07/08 02:04:13;;;;;;;;;12.50;10.25;;;;;-143.47;100.00;63865.75;2111556;28;8751;-68
2023/07/08 02:05:14;;;;;;;;;10.75;10.75;;;;;-143.47;100.00;63865.75;2111733;28;8785;-68
2023/07/08 02:06:14;;;;;;;;;9.00;8.00;;;;;-143.47;100.00;63865.75;2116484;28;9109;-68
2023/07/08 02:07:15;;;;;;;;;7.25;6.75;;;;;-143.47;100.00;63865.75;2119958;28;8768;-68
2023/07/08 02:08:15;;;;;;;;;7.75;7.25;;;;;-143.47;100.00;63865.75;2119952;28;8753;-70
2023/07/08 02:09:15;;;;;;;;;6.75;6.75;;;;;-143.47;100.00;63865.75;2119917;27;8772;-70
2023/07/08 02:10:16;;;;;;;;;8.25;8.25;;;;;-143.47;100.00;63865.75;2120022;28;8741;-69
2023/07/08 02:11:17;;;;;;;;;4.75;4.75;;;;;-143.47;100.00;63865.75;2119828;28;8749;-70
2023/07/08 02:12:17;;;;;;;;;7.25;7.25;;;;;-143.47;100.00;63865.75;2120306;28;8705;-71
2023/07/08 02:13:18;;;;;;;;;8.00;8.00;;;;;-143.47;100.00;63865.75;2110055;28;8824;-71
2023/07/08 02:14:19;;;;;;;;;8.80;8.00;;;;;-143.47;100.00;63865.75;2109490;28;8692;-70
2023/07/08 02:15:19;;;;;;;;;7.00;7.00;;;;;-143.47;100.00;63865.75;2111924;28;8755;-69
2023/07/08 02:16:19;;;;;;;;;8.00;8.00;;;;;-143.47;100.00;63865.75;2111521;28;8725;-68
2023/07/08 02:17:20;;;;;;;;;7.50;7.00;;;;;-143.47;100.00;63865.75;2111323;28;8810;-70
2023/07/08 02:18:20;;;;;;;;;9.50;8.25;;;;;-143.47;100.00;63865.75;2111545;28;8857;-70
2023/07/08 02:19:22;;;;;;;;;10.00;9.25;;;;;-143.47;100.00;63865.75;2117392;28;8849;-66
2023/07/08 02:20:22;;;;;;;;;7.60;7.60;;;;;-143.47;100.00;63865.75;2120646;28;8751;-72
2023/07/08 02:21:23;;;;;;;;;7.25;7.25;;;;;-143.47;100.00;63865.75;2092889;28;8751;-72
2023/07/08 02:22:23;;;;;;;;;6.75;5.25;;;;;-143.47;100.00;63865.75;2093585;28;8859;-71
2023/07/08 02:23:25;;;;;;;;;7.50;7.50;;;;;-143.47;100.00;63865.75;2119486;28;8776;-69
2023/07/08 02:24:25;;;;;;;;;8.40;6.20;;;;;-143.47;100.00;63865.75;2120049;28;8712;-68
2023/07/08 02:25:26;;;;;;;;;6.50;5.75;;;;;-143.47;100.00;63865.75;2117103;28;8768;-69
2023/07/08 02:26:26;;;;;;;;;6.50;6.50;;;;;-143.47;100.00;63865.75;2111809;28;8762;-70
2023/07/08 02:27:26;;;;;;;;;9.00;6.25;;;;;-143.47;100.00;63865.75;2116965;28;8795;-70
2023/07/08 02:28:27;;;;;;;;;8.50;8.50;;;;;-143.47;100.00;63865.75;2118546;28;8737;-69
2023/07/08 02:29:27;;;;;;;;;3.33;3.33;;;;;-143.47;100.00;63865.75;2111437;28;8746;-67
2023/07/08 02:30:27;;;;;;;;;4.50;4.50;;;;;-143.47;100.00;63865.75;2111229;28;8761;-68
2023/07/08 02:31:28;;;;;;;;;4.75;4.75;;;;;-143.47;100.00;63865.75;2110541;28;8773;-68
2023/07/08 02:32:28;;;;;;;;;6.67;6.67;;;;;-143.47;100.00;63865.75;2102770;28;8773;-67
2023/07/08 02:33:32;;;;;;;;;6.25;6.25;;;;;-143.47;100.00;63865.75;2096934;28;9647;-68
2023/07/08 02:34:32;;;;;;;;;5.00;5.00;;;;;-143.47;100.00;63865.75;2111494;28;8670;-68
2023/07/08 02:35:33;;;;;;;;;7.75;5.75;;;;;-143.47;100.00;63865.75;2119976;28;8807;-67
2023/07/08 02:36:34;;;;;;;;;6.00;6.00;;;;;-143.47;100.00;63865.75;2110859;28;8735;-68
2023/07/08 02:37:35;;;;;;;;;3.00;3.00;;;;;-143.47;100.00;63865.75;2111093;28;8822;-67
2023/07/08 02:38:35;;;;;;;;;4.33;4.33;;;;;-143.47;100.00;63865.75;2119703;28;8749;-67
2023/07/08 02:39:35;;;;;;;;;2.67;2.00;;;;;-143.47;100.00;63865.75;2111184;28;8755;-70
2023/07/08 02:40:36;;;;;;;;;5.00;5.00;;;;;-143.47;100.00;63865.75;2110977;28;8767;-70
2023/07/08 02:41:37;;;;;;;;;5.75;5.75;;;;;-143.47;100.00;63865.75;2116669;28;8751;-68
2023/07/08 02:42:37;;;;;;;;;3.75;2.50;;;;;-143.47;100.00;63865.75;2111125;28;8676;-67
2023/07/08 02:43:38;;;;;;;;;3.00;3.00;;;;;-143.47;100.00;63865.75;2117955;28;8847;-67
2023/07/08 02:44:38;;;;;;;;;3.40;3.40;;;;;-143.47;100.00;63865.75;2110802;28;8723;-67
2023/07/08 02:45:39;;;;;;;;;1.67;1.67;;;;;-143.47;100.00;63865.75;2110761;28;8747;-67
2023/07/08 02:46:39;;;;;;;;;2.25;2.25;;;;;-143.47;100.00;63865.75;2114589;28;8793;-68
2023/07/08 02:47:39;;;;;;;;;2.00;2.00;;;;;-143.47;100.00;63865.75;2111543;28;8727;-68
2023/07/08 02:48:40;;;;;;;;;3.75;3.75;;;;;-143.47;100.00;63865.75;2111261;28;9269;-69
2023/07/08 02:49:40;;;;;;;;;4.33;4.33;;;;;-143.47;100.00;63865.75;2113969;28;9043;-69
2023/07/08 02:50:40;;;;;;;;;3.67;3.00;;;;;-143.47;100.00;63865.75;2119835;28;8805;-68
2023/07/08 02:51:41;;;;;;;;;1.50;1.00;;;;;-143.47;100.00;63865.75;2120017;28;8857;-68
2023/07/08 02:52:41;;;;;;;;;3.33;2.00;;;;;-143.47;100.00;63865.75;2119683;28;8797;-67
2023/07/08 02:53:41;;;;;;;;;2.67;2.67;;;;;-143.47;100.00;63865.75;2101782;28;8791;-68
2023/07/08 02:54:42;;;;;;;;;3.67;3.67;;;;;-143.47;100.00;63865.75;2101454;28;8757;-68
2023/07/08 02:55:42;;;;;;;;;1.00;1.00;;;;;-143.47;100.00;63865.75;2101876;28;9433;-68
2023/07/08 02:56:43;;;;;;;;;1.67;1.67;;;;;-143.47;100.00;63865.75;2102052;28;8753;-67
2023/07/08 02:57:43;;;;;;;;;1.67;1.67;;;;;-143.47;100.00;63865.75;2093654;28;9217;-69
2023/07/08 02:58:43;;;;;;;;;1.67;1.67;;;;;-143.47;100.00;63865.75;2093485;28;8813;-69
2023/07/08 02:59:44;;;;;;;;;1.00;1.00;;;;;-143.47;100.00;63865.75;2102219;28;8902;-70
2023/07/08 03:00:44;;;;;;;;;2.00;2.00;;;;;-143.47;100.00;63865.75;2101783;28;8816;-69
2023/07/08 03:01:46;;;;;;;;;2.67;2.00;;;;;-143.47;100.00;63865.75;2093379;28;8787;-69
2023/07/08 03:02:46;;;;;;;;;0.50;0.50;;;;;-143.47;100.00;63865.75;2093890;28;8764;-70
2023/07/08 03:03:47;;;;;;;;;1.00;1.00;;;;;-143.47;100.00;63865.75;2100167;28;8803;-70
2023/07/08 03:04:49;;;;;;;;;1.50;1.00;;;;;-143.47;100.00;63865.75;2095669;28;9130;-68
2023/07/08 03:06:01;;;;;;;;;1.75;1.75;;;;;-143.47;100.00;63865.75;2087295;28;8726;-70
2023/07/08 03:07:01;;;;;;;;;1.00;1.00;;;;;-143.47;100.00;63865.75;2094875;28;8673;-67
2023/07/08 03:08:01;;;;;;;;;1.33;1.33;;;;;-143.47;100.00;63865.75;2101715;28;8769;-67
2023/07/08 03:09:02;;;;;;;;;1.00;1.00;;;;;-143.47;100.00;63865.75;2101598;28;8772;-67
2023/07/08 03:10:03;;;;;;;;;2.33;1.33;;;;;-143.47;100.00;63865.75;2102567;28;8777;-68
2023/07/08 03:11:05;;;;;;;;;2.75;2.75;;;;;-143.47;100.00;63865.75;2101918;28;8738;-67
2023/07/08 03:12:08;;;;;;;;;0.50;0.50;;;;;-143.47;100.00;63865.75;2102236;28;8827;-67
2023/07/08 03:13:08;;;;;;;;;1.50;1.50;;;;;-143.47;100.00;63865.75;2101642;28;8698;-69
2023/07/08 03:14:08;;;;;;;;;0.67;0.67;;;;;-143.47;100.00;63865.75;2101926;28;8753;-68
2023/07/08 03:15:09;;;;;;;;;1.33;1.33;;;;;-143.47;100.00;63865.75;2096409;28;8779;-68
2023/07/08 03:16:12;;;;;;;;;1.33;1.33;;;;;-143.47;100.00;63865.75;2068641;28;8775;-69
2023/07/08 03:17:12;;;;;;;;;1.00;1.00;;;;;-143.47;100.00;63865.75;2069535;28;8978;-68
2023/07/08 03:18:13;;;;;;;;;1.00;1.00;;;;;-143.47;100.00;63865.75;2093701;28;8809;-67
2023/07/08 03:19:15;;;;;;;;;3.00;1.00;;;;;-143.47;100.00;63865.75;2095662;28;8785;-69
2023/07/08 03:20:15;;;;;;;;;2.40;2.40;;;;;-143.47;100.00;63865.75;2101733;28;8722;-68
2023/07/08 03:21:18;;;;;;;;;1.00;1.00;;;;;-143.47;100.00;63865.75;2094014;28;8795;-69
2023/07/08 03:22:18;;;;;;;;;2.00;2.00;;;;;-143.47;100.00;63865.75;2095931;28;8692;-68
2023/07/08 03:23:19;;;;;;;;;2.33;2.33;;;;;-143.47;100.00;63865.75;2094054;28;8791;-69
2023/07/08 03:24:19;;;;;;;;;2.00;2.00;;;;;-143.47;100.00;63865.75;2092960;28;8798;-68
2023/07/08 03:25:19;;;;;;;;;2.00;2.00;;;;;-143.47;100.00;63865.75;2108028;28;9183;-68
2023/07/08 03:26:23;;;;;;;;;1.00;1.00;;;;;-143.47;100.00;63865.75;2119921;28;9274;-68
2023/07/08 03:27:23;;;;;;;;;1.75;1.75;;;;;-143.47;100.00;63865.75;2119174;28;9272;-68
2023/07/08 03:28:23;;;;;;;;;1.33;1.33;;;;;-143.47;100.00;63865.75;2118413;28;8760;-69
2023/07/08 03:29:24;;;;;;;;;2.00;2.00;;;;;-143.47;100.00;63865.75;2111308;28;8730;-69
2023/07/08 03:30:26;;;;;;;;;0.33;0.33;;;;;-143.47;100.00;63865.75;2110935;28;9388;-69
2023/07/08 03:31:26;;;;;;;;;3.00;1.00;;;;;-143.47;100.00;63865.75;2111722;28;8740;-67
2023/07/08 03:32:27;;;;;;;;;1.00;1.00;;;;;-143.47;100.00;63865.75;2111235;28;8774;-69
2023/07/08 03:33:27;;;;;;;;;0.33;0.33;;;;;-143.47;100.00;63865.75;2113829;28;8804;-69
2023/07/08 03:34:27;;;;;;;;;2.00;2.00;;;;;-143.47;100.00;63865.75;2119640;28;8732;-68
2023/07/08 03:35:28;;;;;;;;;1.00;1.00;;;;;-143.47;100.00;63865.75;2117263;28;8845;-70
2023/07/08 03:36:28;;;;;;;;;0.00;0.00;;;;;-143.47;100.00;63865.75;2112578;28;9211;-69
2023/07/08 03:37:28;;;;;;;;;1.67;1.67;;;;;-143.47;100.00;63865.75;2110535;28;8743;-68
2023/07/08 03:38:29;;;;;;;;;2.67;1.67;;;;;-143.47;100.00;63865.75;2103157;28;8773;-69
2023/07/08 03:39:31;;;;;;;;;1.00;1.00;;;;;-143.47;100.00;63865.75;2111333;28;8818;-69
2023/07/08 03:40:32;;;;;;;;;3.75;1.75;;;;;-143.47;100.00;63865.75;2118960;28;8728;-69
2023/07/08 03:41:32;;;;;;;;;1.67;1.67;;;;;-143.47;100.00;63865.75;2117310;28;8753;-69
2023/07/08 03:42:32;;;;;;;;;3.33;1.67;;;;;-143.47;100.00;63865.75;2110668;28;8759;-69
2023/07/08 03:43:33;;;;;;;;;1.67;1.00;;;;;-143.47;100.00;63865.75;2117524;28;8862;-68
2023/07/08 03:44:33;;;;;;;;;3.00;2.00;;;;;-143.47;100.00;63865.75;2110673;28;8932;-68
2023/07/08 03:45:33;;;;;;;;;1.00;1.00;;;;;-143.47;100.00;63865.75;2110259;28;8743;-69
2023/07/08 03:46:34;;;;;;;;;1.00;1.00;;;;;-143.47;100.00;63865.75;2119909;28;8884;-69
2023/07/08 03:47:34;;;;;;;;;2.00;2.00;;;;;-143.47;100.00;63865.75;2114198;28;8851;-69
2023/07/08 03:48:34;;;;;;;;;2.00;1.00;;;;;-143.47;100.00;63865.75;2118259;28;8784;-69
2023/07/08 03:49:35;;;;;;;;;0.33;0.33;;;;;-143.47;100.00;63865.75;2119195;28;8744;-69
2023/07/08 03:50:35;;;;;;;;;1.00;1.00;;;;;-143.47;100.00;63865.75;2119346;28;9364;-68
2023/07/08 03:51:37;;;;;;;;;1.00;1.00;;;;;-143.47;100.00;63865.75;2119364;28;8816;-69
2023/07/08 03:52:38;;;;;;;;;1.00;1.00;;;;;-143.47;100.00;63865.75;2113244;28;8733;-69
2023/07/08 03:53:38;;;;;;;;;0.33;0.33;;;;;-143.47;100.00;63865.75;2119707;28;8721;-68
2023/07/08 03:54:38;;;;;;;;;2.00;1.00;;;;;-143.47;100.00;63865.75;2119349;28;8856;-69
2023/07/08 03:55:39;;;;;;;;;0.33;0.33;;;;;-143.47;100.00;63865.75;2119276;28;8728;-69
2023/07/08 03:56:39;;;;;;;;;0.33;0.33;;;;;-143.47;100.00;63865.75;2110409;28;8779;-68
2023/07/08 03:57:40;;;;;;;;;1.00;1.00;;;;;-143.47;100.00;63865.75;2110418;28;8727;-69
2023/07/08 03:58:40;;;;;;;;;1.00;1.00;;;;;-143.47;100.00;63865.75;2119595;28;8867;-68
2023/07/08 03:59:40;;;;;;;;;0.33;0.00;;;;;-143.47;100.00;63865.75;2110466;28;8759;-68
2023/07/08 04:00:41;;;;;;;;;1.00;1.00;;;;;-143.47;100.00;63865.75;2110175;28;8762;-68
2023/07/08 04:01:41;;;;;;;;;1.00;1.00;;;;;-143.47;100.00;63865.75;2119105;28;8872;-69
2023/07/08 04:02:43;;;;;;;;;1.00;1.00;;;;;-143.47;100.00;63865.75;2119445;28;9229;-68
2023/07/08 04:03:44;;;;;;;;;4.25;3.00;;;;;-143.47;100.00;63865.75;2119221;28;9347;-68
2023/07/08 04:04:44;;;;;;;;;2.50;2.50;;;;;-143.47;100.00;63865.75;2114242;28;8736;-68
2023/07/08 04:05:44;;;;;;;;;3.67;2.00;;;;;-143.47;100.00;63865.75;2110943;28;8744;-68
2023/07/08 04:06:45;;;;;;;;;1.00;1.00;;;;;-143.47;100.00;63865.75;2101746;28;8867;-68
2023/07/08 04:07:46;;;;;;;;;2.33;1.33;;;;;-143.47;100.00;63865.75;2105726;28;8779;-69
2023/07/08 04:08:47;;;;;;;;;2.33;2.33;;;;;-143.47;100.00;63865.75;2118968;28;8707;-66
2023/07/08 04:09:49;;;;;;;;;2.00;1.67;;;;;-143.47;100.00;63865.75;2117097;28;11467;-69
2023/07/08 04:10:50;;;;;;;;;2.00;1.75;;;;;-143.47;100.00;63865.75;2119610;28;8827;-68
2023/07/08 04:11:50;;;;;;;;;3.00;3.00;;;;;-143.47;100.00;63865.75;2119336;28;8773;-67
2023/07/08 04:12:50;;;;;;;;;3.00;3.00;;;;;-143.47;100.00;63865.75;2119419;28;8863;-65
2023/07/08 04:13:51;;;;;;;;;1.00;1.00;;;;;-143.47;100.00;63865.75;2119177;28;9268;-68
2023/07/08 04:14:51;;;;;;;;;3.00;2.00;;;;;-143.47;100.00;63865.75;2117059;28;8835;-67
2023/07/08 04:16:02;;;;;;;;;3.00;3.00;;;;;-143.47;100.00;63865.75;2114872;28;8789;-67
2023/07/08 04:17:02;;;;;;;;;6.00;3.50;;;;;-143.47;100.00;63865.75;2119451;28;8741;-68
2023/07/08 04:18:03;;;;;;;;;3.00;3.00;;;;;-143.47;100.00;63865.75;2119732;28;8767;-68
2023/07/08 04:19:03;;;;;;;;;2.00;2.00;;;;;-143.47;100.00;63865.75;2119420;28;8781;-68
2023/07/08 04:20:04;;;;;;;;;5.00;3.67;;;;;-143.47;100.00;63865.75;2119166;28;8777;-68
2023/07/08 04:21:06;;;;;;;;;5.80;4.00;;;;;-143.47;100.00;63865.75;2093169;28;8751;-68
2023/07/08 04:22:07;;;;;;;;;4.75;3.75;;;;;-143.47;100.00;63865.75;2093282;28;8696;-68
2023/07/08 04:23:08;;;;;;;;;3.50;2.50;;;;;-143.47;100.00;63865.75;2119883;28;8701;-69
2023/07/08 04:24:10;;;;;;;;;2.00;2.00;;;;;-143.47;100.00;63865.75;2119170;28;8741;-68
2023/07/08 04:25:13;;;;;;;;;3.75;3.75;;;;;-143.47;100.00;63865.75;2115193;28;8683;-67
2023/07/08 04:26:14;;;;;;;;;3.50;2.25;;;;;-143.47;100.00;63865.75;2111338;28;8882;-69
2023/07/08 04:27:16;;;;;;;;;1.00;1.00;;;;;-143.47;100.00;63865.75;2114311;28;8725;-67
2023/07/08 04:28:17;;;;;;;;;2.00;2.00;;;;;-143.47;100.00;63865.75;2118913;28;8654;-68
2023/07/08 04:29:20;;;;;;;;;3.33;3.00;;;;;-143.47;100.00;63865.75;2110284;28;8724;-68
2023/07/08 04:30:24;;;;;;;;;2.50;2.50;;;;;-143.47;100.00;63865.75;2114819;28;8718;-67
2023/07/08 04:31:24;;;;;;;;;3.00;2.00;;;;;-143.47;100.00;63865.75;2119345;28;8672;-67
2023/07/08 04:32:25;;;;;;;;;1.33;1.33;;;;;-143.47;100.00;63865.75;2118920;28;8771;-67
2023/07/08 04:33:26;;;;;;;;;2.00;2.00;;;;;-143.47;100.00;63865.75;2119258;28;8772;-69
2023/07/08 04:34:26;;;;;;;;;2.00;2.00;;;;;-143.47;100.00;63865.75;2119287;28;8820;-69
2023/07/08 04:35:26;;;;;;;;;1.00;1.00;;;;;-143.47;100.00;63865.75;2119067;28;8798;-68
2023/07/08 04:36:27;;;;;;;;;2.00;2.00;;;;;-143.47;100.00;63865.75;2109765;28;8735;-68
2023/07/08 04:37:27;;;;;;;;;2.00;1.67;;;;;-143.47;100.00;63865.75;2110314;28;8731;-68
2023/07/08 04:38:27;;;;;;;;;3.33;2.00;;;;;-143.47;100.00;63865.75;2109743;28;8850;-69
2023/07/08 04:39:28;;;;;;;;;2.00;2.00;;;;;-143.47;100.00;63865.75;2110325;28;9195;-69
2023/07/08 04:40:28;;;;;;;;;4.00;1.67;;;;;-143.47;100.00;63865.75;2109902;28;8790;-68
2023/07/08 04:41:28;;;;;;;;;2.00;2.00;;;;;-143.47;100.00;63865.75;2108082;28;8727;-69
2023/07/08 04:42:29;;;;;;;;;1.33;1.33;;;;;-143.47;100.00;63865.75;2102568;28;8748;-68
2023/07/08 04:43:29;;;;;;;;;2.00;1.67;;;;;-143.47;100.00;63865.75;2113114;28;9230;-68